Latest Weather Observations for Warwick

IDQ60901

Issued at 10:42 am EST Tuesday 6 December 2022 (issued every 10 minutes, with the page automatically refreshed every 10 minutes)

About weather observations | Map of Brisbane area stations | Latest observations for Brisbane area | Other Formats
Station Details ID: 041525 Name: WARWICK Lat: -28.21 Lon: 152.10 Height: 475.4 m
Data from the previous 72 hours. | See also: Recent months at Warwick
Date/Time
EST
Temp
°C
App
Temp
°C
Dew
Point
°C
Rel
Hum
%
Delta-T
°C
Wind Press
QNH
hPa
Press
MSL
hPa
Rain since
9am
mm
Dir  Spd
km/h
Gust
km/h
Spd
kts
Gust
kts
06/10:30am 29.3 26.8 12.3 35 10.2 WNW 17 28 9 15 1008.5 1005.9 0.0
06/10:00am 27.9 25.2 13.4 40 8.8 WNW 20 30 11 16 1008.9 1006.3 0.0
06/09:30am 27.0 23.7 11.5 38 9.0 WNW 20 32 11 17 1009.3 1006.8 0.0
06/09:00am 26.1 24.0 13.6 46 7.5 WNW 17 32 9 17 1009.6 1007.1 0.0
06/08:30am 24.9 22.8 13.5 49 6.8 WNW 17 28 9 15 1009.9 1007.4 0.0
06/08:00am 23.4 20.7 11.8 48 6.7 WNW 17 26 9 14 1010.0 1007.5 0.0
06/07:30am 21.7 23.6 15.8 69 3.6 CALM 0 0 0 0 1009.9 1007.4 0.0
06/07:00am 17.7 18.8 13.4 76 2.5 CALM 0 0 0 0 1010.2 1007.7 0.0
06/06:30am 15.6 16.4 12.4 81 1.8 CALM 0 0 0 0 1009.8 1007.3 0.0
06/06:00am 13.8 14.4 11.8 88 1.1 CALM 0 0 0 0 1009.5 1007.0 0.0
06/05:30am 12.4 12.8 11.1 92 0.7 CALM 0 0 0 0 1009.1 1006.6 0.0
06/05:00am 11.0 11.0 9.9 93 0.6 CALM 0 0 0 0 1009.2 1006.7 0.0
06/04:30am 11.9 12.2 11.0 94 0.5 CALM 0 0 0 0 1008.8 1006.2 0.0
06/04:00am 11.7 12.1 11.1 96 0.3 CALM 0 0 0 0 1008.4 1005.8 0.0
06/03:30am 12.0 12.3 10.9 93 0.6 CALM 0 0 0 0 1008.1 1005.6 0.0
06/03:00am 12.2 12.5 10.8 91 0.7 CALM 0 0 0 0 1008.0 1005.5 0.0
06/02:30am 12.5 12.8 10.9 90 0.9 CALM 0 0 0 0 1008.1 1005.6 0.0
06/02:00am 13.1 13.4 11.0 87 1.1 CALM 0 0 0 0 1008.1 1005.6 0.0
06/01:30am 13.0 13.5 11.6 91 0.8 CALM 0 0 0 0 1008.5 1005.9 0.0
06/01:00am 13.4 13.7 10.9 85 1.3 CALM 0 0 0 0 1008.5 1005.9 0.0
06/12:30am 14.5 15.1 11.8 84 1.5 CALM 0 0 0 0 1008.8 1006.2 0.0
06/12:00am 14.5 15.0 11.7 83 1.5 CALM 0 0 0 0 1009.1 1006.6 0.0
 
Date/Time
EST
Temp
°C
App
Temp
°C
Dew
Point
°C
Rel
Hum
%
Delta-T
°C
Wind Press
QNH
hPa
Press
MSL
hPa
Rain since
9am
mm
Dir  Spd
km/h
Gust
km/h
Spd
kts
Gust
kts
05/11:30pm 14.3 14.7 11.3 82 1.6 CALM 0 0 0 0 1009.4 1006.9 0.0
05/11:00pm 15.5 16.0 11.7 78 2.1 CALM 0 0 0 0 1009.4 1006.9 0.0
05/10:30pm 16.2 16.8 12.0 76 2.3 CALM 0 0 0 0 1009.7 1007.2 0.0
05/10:00pm 16.1 16.4 12.3 78 2.1 NNE 2 7 1 4 1009.8 1007.3 0.0
05/09:30pm 17.1 17.5 11.4 69 3.2 CALM 0 6 0 3 1009.6 1007.1 0.0
05/09:00pm 17.8 17.5 11.6 67 3.5 ENE 4 9 2 5 1009.5 1007.0 0.0
05/08:30pm 19.5 19.8 10.8 57 4.8 CALM 0 0 0 0 1009.3 1006.8 0.0
05/08:00pm 22.1 21.3 9.6 45 6.9 WNW 4 11 2 6 1009.1 1006.6 0.0
05/07:30pm 23.1 21.3 9.5 42 7.5 NW 9 13 5 7 1008.9 1006.3 0.0
05/07:00pm 23.0 21.7 9.8 43 7.4 WNW 7 11 4 6 1008.6 1006.0 0.0
05/06:30pm 24.0 22.9 10.7 43 7.5 WNW 7 11 4 6 1008.2 1005.7 0.0
05/06:00pm 26.3 24.6 10.0 36 9.3 W 9 15 5 8 1008.0 1005.5 0.0
05/05:30pm 27.8 25.1 9.1 31 10.5 W 13 20 7 11 1007.8 1005.3 0.0
05/05:00pm 28.3 24.9 9.1 30 10.9 W 17 28 9 15 1007.6 1005.1 0.0
05/04:30pm 26.8 25.4 9.6 34 9.7 WNW 7 17 4 9 1007.6 1005.1 0.0
05/04:00pm 28.7 27.4 9.9 31 10.8 WNW 7 19 4 10 1007.6 1005.1 0.0
05/03:30pm 27.5 25.3 9.3 32 10.3 WSW 11 19 6 10 1007.8 1005.3 0.0
05/03:00pm 28.9 28.1 11.0 33 10.5 SW 6 11 3 6 1007.9 1005.4 0.0
05/02:30pm 28.2 27.2 10.4 33 10.3 WNW 6 13 3 7 1008.1 1005.6 0.0
05/02:00pm 27.9 27.0 11.5 36 9.6 WNW 7 11 4 6 1008.5 1005.9 0.0
05/01:30pm 27.3 26.0 11.3 37 9.3 W 9 17 5 9 1009.1 1006.6 0.0
05/01:00pm 26.8 25.4 12.1 40 8.7 NW 11 20 6 11 1009.5 1007.0 0.0
05/12:30pm 26.8 26.0 12.8 42 8.3 ENE 9 22 5 12 1009.9 1007.4 0.0
05/12:00pm 24.9 24.4 12.8 47 7.2 W 7 13 4 7 1010.4 1007.9 0.0
05/11:30am 25.9 26.1 14.7 50 6.8 SW 7 17 4 9 1011.0 1008.5 0.0
05/11:00am 23.7 22.7 12.4 49 6.6 SW 9 20 5 11 1011.4 1008.9 0.0
05/10:30am 24.6 24.2 14.1 52 6.3 WSW 9 13 5 7 1011.7 1009.2 0.0
05/10:00am 23.2 23.0 13.1 53 6.0 SW 6 13 3 7 1012.0 1009.5 0.0
05/09:30am 22.4 22.2 13.7 58 5.2 SSE 7 13 4 7 1012.2 1009.7 0.0
05/09:00am 21.9 22.3 15.3 66 4.0 S 7 13 4 7 1012.5 1010.0 0.0
05/08:30am 20.4 20.1 14.3 68 3.6 SSE 9 17 5 9 1012.8 1010.2 0.0
05/08:00am 19.6 18.7 13.8 69 3.4 SSE 11 17 6 9 1012.9 1010.4 0.0
05/07:30am 18.8 18.1 14.3 75 2.7 S 11 19 6 10 1013.1 1010.6 0.0
05/07:00am 17.7 16.1 14.0 79 2.2 SSE 15 22 8 12 1013.0 1010.5 0.0
05/06:30am 17.0 16.2 13.9 82 1.8 SSE 11 20 6 11 1012.9 1010.4 0.0
05/06:00am 16.2 17.5 14.0 87 1.3 CALM 0 0 0 0 1012.6 1010.1 0.0
05/05:30am 14.2 15.1 12.9 92 0.7 CALM 0 7 0 4 1012.2 1009.7 0.0
05/05:00am 13.1 13.9 12.5 96 0.3 CALM 0 0 0 0 1012.0 1009.5 0.0
05/04:30am 13.5 12.9 12.2 92 0.7 SSE 7 9 4 5 1011.8 1009.3 0.0
05/04:00am 13.7 13.2 12.6 93 0.6 SSE 7 11 4 6 1011.9 1009.4 0.0
05/03:30am 13.2 13.9 12.1 93 0.6 CALM 0 6 0 3 1011.8 1009.3 0.0
05/03:00am 13.4 13.0 12.3 93 0.6 SSE 6 11 3 6 1011.9 1009.4 0.0
05/02:30am 13.4 14.1 12.1 92 0.7 CALM 0 6 0 3 1012.0 1009.5 0.0
05/02:00am 13.7 13.7 12.4 92 0.7 S 4 7 2 4 1012.3 1009.8 0.0
05/01:30am 14.3 13.4 12.7 90 0.9 SSE 9 15 5 8 1012.6 1010.1 0.0
05/01:00am 14.3 13.4 12.7 90 0.9 SSE 9 13 5 7 1013.0 1010.5 0.0
05/12:30am 14.3 14.1 12.9 91 0.8 SSE 6 11 3 6 1013.3 1010.8 0.0
05/12:00am 14.4 14.0 13.0 91 0.8 SSE 7 13 4 7 1013.7 1011.2 0.0
 
Date/Time
EST
Temp
°C
App
Temp
°C
Dew
Point
°C
Rel
Hum
%
Delta-T
°C
Wind Press
QNH
hPa
Press
MSL
hPa
Rain since
9am
mm
Dir  Spd
km/h
Gust
km/h
Spd
kts
Gust
kts
04/11:30pm 14.8 14.3 12.7 87 1.2 SSE 7 11 4 6 1014.1 1011.6 0.0
04/11:00pm 15.2 14.8 13.1 87 1.2 SSE 7 13 4 7 1014.4 1011.9 0.0
04/10:30pm 15.2 14.8 12.9 86 1.3 SSE 7 13 4 7 1014.6 1012.1 0.0
04/10:00pm 15.7 15.4 13.2 85 1.4 SSE 7 11 4 6 1014.8 1012.4 0.0
04/09:30pm 16.1 15.4 13.2 83 1.7 SSE 9 15 5 8 1014.9 1012.5 0.0
04/09:00pm 16.6 16.0 13.5 82 1.8 SSE 9 19 5 10 1014.8 1012.4 0.0
04/08:30pm 16.9 15.6 13.8 82 1.8 S 13 20 7 11 1014.5 1012.0 0.0
04/08:00pm 17.3 15.6 13.6 79 2.1 SSE 15 20 8 11 1014.2 1011.7 0.0
04/07:30pm 18.0 17.0 13.5 75 2.6 SE 11 15 6 8 1013.8 1011.3 0.0
04/07:00pm 19.0 18.4 13.4 70 3.3 SE 9 17 5 9 1013.4 1010.9 0.0
04/06:30pm 20.1 19.1 13.3 65 4.0 SE 11 19 6 10 1013.1 1010.6 0.0
04/06:00pm 21.6 20.1 13.2 58 4.9 SE 13 26 7 14 1012.6 1010.1 0.0
04/05:30pm 22.9 20.6 11.9 50 6.3 SSE 15 26 8 14 1012.2 1009.7 0.0
04/05:00pm 23.9 21.2 11.6 46 7.1 SSE 17 26 9 14 1011.9 1009.4 0.0
04/04:30pm 24.0 21.5 11.0 44 7.4 S 15 28 8 15 1011.7 1009.2 0.0
04/04:00pm 24.4 21.1 11.0 43 7.7 SSE 19 28 10 15 1011.7 1009.2 0.0
04/03:30pm 24.5 22.2 11.8 45 7.4 SE 15 26 8 14 1011.9 1009.4 0.0
04/03:00pm 24.2 21.9 11.9 46 7.1 SE 15 26 8 14 1012.0 1009.5 0.0
04/02:30pm 24.3 22.2 12.3 47 7.0 SSE 15 24 8 13 1012.2 1009.7 0.0
04/02:00pm 24.5 22.0 13.4 50 6.6 SSE 19 30 10 16 1012.6 1010.1 0.0
04/01:30pm 24.2 22.1 12.5 48 6.9 SE 15 26 8 14 1013.0 1010.5 0.0
04/01:00pm 23.0 20.7 12.9 53 5.9 SE 17 35 9 19 1013.3 1010.8 0.0
04/12:30pm 23.8 21.5 13.1 51 6.3 SSE 17 30 9 16 1013.6 1011.1 0.0
04/12:00pm 23.7 21.0 13.0 51 6.3 SSE 19 28 10 15 1013.9 1011.4 0.0
04/11:30am 22.9 19.9 12.5 52 6.1 SSE 20 30 11 16 1014.2 1011.7 0.0
04/11:00am 22.3 19.3 12.0 52 5.9 SE 19 32 10 17 1014.5 1012.0 0.0
04/10:30am 22.4 19.9 12.4 53 5.8 SE 17 28 9 15 1014.7 1012.3 0.0
04/10:00am 22.2 20.1 12.5 54 5.6 SE 15 28 8 15 1015.1 1012.6 0.0
04/09:30am 21.4 19.2 12.0 55 5.4 SE 15 26 8 14 1015.4 1012.9 0.0
04/09:00am 19.7 16.4 11.5 59 4.6 SSE 20 32 11 17 1015.5 1013.0 0.0
04/08:30am 19.8 16.8 11.8 60 4.5 SE 19 30 10 16 1015.7 1013.2 0.0
04/08:00am 19.1 16.0 11.7 62 4.2 SE 19 32 10 17 1015.8 1013.3 0.0
04/07:30am 17.9 14.3 11.9 68 3.4 SE 22 33 12 18 1015.8 1013.3 0.0
04/07:00am 17.1 13.9 12.0 72 2.9 SE 20 32 11 17 1015.7 1013.2 0.0
04/06:30am 16.0 14.0 12.7 81 1.9 SSE 15 20 8 11 1015.6 1013.1 0.0
04/06:00am 15.0 13.6 12.3 84 1.5 SSE 11 15 6 8 1015.3 1012.8 0.0
04/05:30am 13.7 12.6 11.8 88 1.0 SSE 9 17 5 9 1014.8 1012.4 0.0
04/05:00am 12.9 11.3 11.5 91 0.8 SSE 11 15 6 8 1014.7 1012.3 0.0
04/04:30am 12.8 10.8 11.4 91 0.8 SSE 13 17 7 9 1014.5 1012.0 0.0
04/04:00am 12.7 11.0 11.1 90 0.9 SSE 11 17 6 9 1014.5 1012.0 0.0
04/03:30am 12.9 11.9 11.1 89 1.0 SSE 7 13 4 7 1014.6 1012.1 0.0
04/03:00am 13.3 11.7 11.4 88 1.0 SSE 11 20 6 11 1014.5 1012.0 0.0
04/02:30am 12.7 11.9 11.1 90 0.9 SE 6 9 3 5 1014.7 1012.3 0.0
04/02:00am 13.2 11.5 11.3 88 1.0 S 11 17 6 9 1014.6 1012.1 0.0
04/01:30am 13.4 12.2 11.6 89 1.0 SSE 9 15 5 8 1014.6 1012.1 0.0
04/01:00am 13.6 12.0 11.5 87 1.1 SSE 11 17 6 9 1014.9 1012.5 0.0
04/12:30am 13.4 12.7 11.5 88 1.0 S 6 11 3 6 1015.5 1013.0 0.0
04/12:00am 13.5 12.6 11.4 87 1.1 SSE 7 11 4 6 1015.7 1013.2 0.0
 
Date/Time
EST
Temp
°C
App
Temp
°C
Dew
Point
°C
Rel
Hum
%
Delta-T
°C
Wind Press
QNH
hPa
Press
MSL
hPa
Rain since
9am
mm
Dir  Spd
km/h
Gust
km/h
Spd
kts
Gust
kts
03/11:30pm 13.6 12.7 11.3 86 1.2 SE 7 13 4 7 1016.0 1013.5 0.0
03/11:00pm 13.2 12.4 10.9 86 1.2 ESE 6 11 3 6 1016.4 1013.9 0.0
03/10:30pm 12.8 12.7 10.9 88 1.0 ESE 2 9 1 5 1016.6 1014.2 0.0
03/10:00pm 13.0 12.9 10.9 87 1.1 ESE 2 7 1 4 1016.6 1014.2 0.0
03/09:30pm 13.4 12.0 10.9 85 1.3 ESE 9 15 5 8 1016.4 1013.9 0.0
03/09:00pm 14.3 13.3 10.9 80 1.8 ESE 7 13 4 7 1016.3 1013.8 0.0
03/08:30pm 14.7 13.2 10.7 77 2.2 SE 9 15 5 8 1016.1 1013.6 0.0
03/08:00pm 15.0 13.8 10.4 74 2.5 ESE 7 13 4 7 1015.9 1013.4 0.0
03/07:30pm 15.1 14.1 10.3 73 2.6 ESE 6 9 3 5 1015.7 1013.2 0.0
03/07:00pm 16.4 16.3 10.7 69 3.1 ESE 2 7 1 4 1015.5 1013.0 0.0
03/06:30pm 18.2 16.7 10.6 61 4.2 ESE 9 19 5 10 1015.3 1012.8 0.0
03/06:00pm 20.1 17.0 10.2 53 5.5 SSE 17 28 9 15 1014.7 1012.3 0.0
03/05:30pm 20.0 17.4 10.7 55 5.2 SSE 15 22 8 12 1014.5 1012.0 0.0
03/05:00pm 19.9 16.7 9.8 52 5.5 SE 17 28 9 15 1014.3 1011.8 0.0
03/04:30pm 20.8 18.6 12.0 57 5.0 SE 15 32 8 17 1014.1 1011.6 0.0
03/04:00pm 20.3 17.6 12.8 62 4.3 SSE 19 30 10 16 1014.0 1011.5 0.0
03/03:30pm 19.6 16.7 12.8 65 3.9 SSE 20 33 11 18 1014.0 1011.5 0.0
03/03:01pm 20.7 16.0 12.1 58 4.9 SSE 28 46 15 25 1013.9 1011.4 0.0
03/03:00pm 20.6 15.4 11.5 56 5.2 SSE 30 46 16 25 1013.9 1011.4 0.0
03/02:48pm 21.7 17.3 12.8 57 5.2 SSE 28 46 15 25 1013.8 1011.3 0.0
03/02:30pm 21.3 18.1 13.0 59 4.8 SSE 22 35 12 19 1013.9 1011.4 0.0
03/02:00pm 22.4 18.8 12.9 55 5.6 SSE 24 35 13 19 1014.0 1011.5 0.0
03/01:30pm 20.7 17.9 13.2 62 4.4 SE 20 35 11 19 1014.2 1011.7 0.0
03/01:00pm 19.5 15.7 12.5 64 4.0 SSE 24 39 13 21 1014.6 1012.1 0.0
03/12:44pm 20.3 15.9 14.0 67 3.7 SE 30 56 16 30 1014.7 1012.3 0.0
03/12:42pm 19.2 14.6 12.2 64 4.0 SE 28 56 15 30 1014.6 1012.1 0.0
03/12:30pm 22.8 19.8 12.7 53 5.9 SSE 20 32 11 17 1014.4 1011.9 0.0
03/12:00pm 22.1 19.0 12.1 53 5.8 SSE 20 33 11 18 1014.7 1012.3 0.0
03/11:30am 21.1 18.7 12.5 58 5.0 SE 17 30 9 16 1015.1 1012.6 0.0
03/11:00am 20.7 18.2 13.6 64 4.2 SE 19 33 10 18 1015.6 1013.1 0.0

Latest Capital City Observations: Canberra | Sydney | Melbourne | Brisbane | Adelaide | Perth | Hobart | Darwin

Other formats

Comma delimited format used in spreadsheet applications
http://www.bom.gov.au/fwo/IDQ60901/IDQ60901.94555.axf

JavaScript Object Notation format (JSON) in row-major order
http://www.bom.gov.au/fwo/IDQ60901/IDQ60901.94555.json

Data quality

Most of these data are generated automatically and are frequently updated. Quality checks on data are not normally performed. It is possible for incorrect values to appear. Refer to information at About Latest Weather Observations and please check the disclaimer before using these data.